Aviation Digital Data Service (ADDS)

Output produced by METARs form (0110 UTC 19 November 2018)
found at http://www.aviationweather.gov/metar/data/
 
METAR text: RJCO 190033Z 10006KT 9999 -SHRA FEW010 BKN035 BKN050 06/02 Q1013 RMK 1ST010 5CU035 7CU050 A2993
Conditions at: RJCO (SAPPORO (JGSDF/C, JP) observed 0033 UTC 19 November 2018
Temperature: 6.0°C (43°F)
Dewpoint: 2.0°C (36°F) [RH = 75%]
Pressure (altimeter): 29.91 inches Hg (1013.0 mb)
Winds: from the E (100 degrees) at 7 MPH (6 knots; 3.1 m/s)
Visibility: 6 or more miles (10+ km)
Ceiling: 3500 feet AGL
Clouds: few clouds at 1000 feet AGL
broken clouds at 3500 feet AGL
broken clouds at 5000 feet AGL
Weather: -SHRA  (light rain showers)